WetterOnline ( http://www.wetteronline.de )

Wetter aktuell Rostock

Aktuelles Wetter: Rostock-Warnemünde (10m)

6-stündlich | Neueste Meldungen
Ortszeit Temperatur Wetter
Fr, 20.07. 14:00 21.1° C wolkenlos
Fr, 20.07. 8:00 17.6° C bewölkt
Fr, 20.07. 2:00 19.4° C wolkenlos
Do, 19.07. 20:00 21.5° C wolkig
Do, 19.07. 14:00 21.2° C wolkenlos
Do, 19.07. 8:00 18.5° C wolkenlos
Do, 19.07. 2:00 20.4° C wolkig
Mi, 18.07. 20:00 21.8° C wolkig
Ortszeit Temperatur Wetter
Fr, 20.07. 18:00 22.0° C leicht bewölkt
Fr, 20.07. 17:40 22.2° C leicht bewölkt
Fr, 20.07. 17:30 22.7° C leicht bewölkt
Fr, 20.07. 17:20 22.7° C leicht bewölkt
Fr, 20.07. 17:10 22.2° C fast wolkenlos
Fr, 20.07. 17:00 22.3° C wolkenlos
Fr, 20.07. 16:50 22.3° C wolkenlos
Fr, 20.07. 16:30 21.6° C wolkenlos
Fr, 20.07. 16:00 21.4° C wolkenlos
Fr, 20.07. 15:30 21.7° C wolkenlos
Fr, 20.07. 15:00 21.3° C wolkenlos
Fr, 20.07. 14:30 21.0° C wolkenlos
Ortszeit Relative Feuchte Sichtweite
Fr, 20.07. 14:00 54% 9 km
Fr, 20.07. 8:00 80% 28 km
Fr, 20.07. 2:00 74% 30 km
Do, 19.07. 20:00 56% 35 km
Do, 19.07. 14:00 60% 7 km
Do, 19.07. 8:00 76% 22 km
Do, 19.07. 2:00 79% 25 km
Mi, 18.07. 20:00 75% 28 km
Ortszeit Relative Feuchte Sichtweite
Fr, 20.07. 18:00 55% 27 km
Fr, 20.07. 17:40 54% -
Fr, 20.07. 17:30 54% 18 km
Fr, 20.07. 17:20 54% -
Fr, 20.07. 17:10 55% -
Fr, 20.07. 17:00 50% 25 km
Fr, 20.07. 16:50 50% -
Fr, 20.07. 16:30 54% 13 km
Fr, 20.07. 16:00 54% 17 km
Fr, 20.07. 15:30 56% 23 km
Fr, 20.07. 15:00 54% 9 km
Fr, 20.07. 14:30 56% 11 km
Ortszeit Niederschlagsmenge Niederschlagsart
Fr, 20.07. 14:00 0.0 l/m2 in 6 Std. -
Fr, 20.07. 8:00 0.0 l/m2 in 12 Std. -
Fr, 20.07. 2:00 0.0 l/m2 in 6 Std. -
Do, 19.07. 20:00 0.0 l/m2 in 12 Std. -
Do, 19.07. 14:00 0.0 l/m2 in 6 Std. -
Do, 19.07. 8:00 0.0 l/m2 in 12 Std. -
Do, 19.07. 2:00 0.0 l/m2 in 6 Std. -
Mi, 18.07. 20:00 0.0 l/m2 in 12 Std. -
Ortszeit Niederschlagsmenge Niederschlagsart
Fr, 20.07. 18:00 0.0 l/m2 in 1 Std. -
Fr, 20.07. 17:40 keine Meldung -
Fr, 20.07. 17:30 0.0 l/m2 in 1 Std. -
Fr, 20.07. 17:20 keine Meldung -
Fr, 20.07. 17:10 keine Meldung -
Fr, 20.07. 17:00 0.0 l/m2 in 1 Std. -
Fr, 20.07. 16:50 keine Meldung -
Fr, 20.07. 16:30 0.0 l/m2 in 1 Std. -
Fr, 20.07. 16:00 0.0 l/m2 in 1 Std. -
Fr, 20.07. 15:30 0.0 l/m2 in 1 Std. -
Fr, 20.07. 15:00 0.0 l/m2 in 1 Std. -
Fr, 20.07. 14:30 0.0 l/m2 in 1 Std. -
Ortszeit Stärke Spitze Richtung
km/h Bft. km/h Grad Sektor
Fr, 20.07. 14:00 22 4 29 280° W
Fr, 20.07. 8:00 18 3 32 320° NW
Fr, 20.07. 2:00 28 4 35 310° NW
Do, 19.07. 20:00 13 3 39 290° W
Do, 19.07. 14:00 32 5 40 300° NW
Do, 19.07. 8:00 26 4 41 320° NW
Do, 19.07. 2:00 30 5 46 330° NW
Mi, 18.07. 20:00 31 5 44 290° W
Ortszeit Stärke Spitze Richtung
km/h Bft. km/h Grad Sektor
Fr, 20.07. 18:00 17 3 22 290° W
Fr, 20.07. 17:40 18 3 - 290° W
Fr, 20.07. 17:30 18 3 22 290° W
Fr, 20.07. 17:20 18 3 - 290° W
Fr, 20.07. 17:10 14 3 - 290° W
Fr, 20.07. 17:00 17 3 24 290° W
Fr, 20.07. 16:50 17 3 - 290° W
Fr, 20.07. 16:30 19 3 24 290° W
Fr, 20.07. 16:00 18 3 25 280° W
Fr, 20.07. 15:30 18 3 25 280° W
Fr, 20.07. 15:00 18 3 29 280° W
Fr, 20.07. 14:30 20 4 30 280° W
Ortszeit Untergrenze Bedeckung Gattung
total tief tief mittel hoch
Fr, 20.07. 14:00 - 0/8 0/8 - - -
Fr, 20.07. 8:00 480 m 7/8 7/8 - - -
Fr, 20.07. 2:00 - 0/8 0/8 - - -
Do, 19.07. 20:00 2100 m 8/8 3/8 - - -
Do, 19.07. 14:00 - 0/8 0/8 - - -
Do, 19.07. 8:00 9000 m 0/8 0/8 - - -
Do, 19.07. 2:00 900 m 6/8 6/8 - - -
Mi, 18.07. 20:00 1800 m 7/8 5/8 - - -
Ortszeit Bedeckungsgrad in Achtel und Wolkenuntergrenze
Fr, 20.07. 18:00 6(9000m)
Fr, 20.07. 17:40 6(9000m)
Fr, 20.07. 17:30 5(9000m)
Fr, 20.07. 17:20 5(9000m)
Fr, 20.07. 17:10 2(9000m)
Fr, 20.07. 17:00 2(9000m)
Fr, 20.07. 16:50 keine Wolken
Fr, 20.07. 16:30 keine Wolken
Fr, 20.07. 16:00 keine Wolken
Fr, 20.07. 15:30 keine Wolken
Fr, 20.07. 15:00 keine Wolken
Fr, 20.07. 14:30 keine Wolken
Ortszeit Luftdruck NN (hPa) Tendenz (hPa in 3 Std.)
Fr, 20.07. 14:00 1016 - 0,5
Fr, 20.07. 8:00 1016 + 0,2
Fr, 20.07. 2:00 1016 - 0,5
Do, 19.07. 20:00 1017 - 0,8
Do, 19.07. 14:00 1018 + 0,3
Do, 19.07. 8:00 1018 + 1,0
Do, 19.07. 2:00 1016 + 0,6
Mi, 18.07. 20:00 1015 + 0,1
Ortszeit Luftdruck NN (hPa) Tendenz (hPa in 3 Std.)
Fr, 20.07. 18:00 1014 - 1,3
Fr, 20.07. 17:40 1014 keine Meldung
Fr, 20.07. 17:30 1014 - 1,3
Fr, 20.07. 17:20 1014 keine Meldung
Fr, 20.07. 17:10 1014 keine Meldung
Fr, 20.07. 17:00 1014 - 1,1
Fr, 20.07. 16:50 1014 keine Meldung
Fr, 20.07. 16:30 1015 - 1,0
Fr, 20.07. 16:00 1015 - 0,7
Fr, 20.07. 15:30 1015 - 0,5
Fr, 20.07. 15:00 1015 - 0,6
Fr, 20.07. 14:30 1016 - 0,5
Ortszeit Schneehöhe (cm)
Fr, 20.07. 14:00 -
Fr, 20.07. 8:00 -
Fr, 20.07. 2:00 -
Do, 19.07. 20:00 -
Do, 19.07. 14:00 -
Do, 19.07. 8:00 -
Do, 19.07. 2:00 -
Mi, 18.07. 20:00 -
Ortszeit Schneehöhe (cm)
Fr, 20.07. 18:00 -
Fr, 20.07. 17:40 -
Fr, 20.07. 17:30 -
Fr, 20.07. 17:20 -
Fr, 20.07. 17:10 -
Fr, 20.07. 17:00 -
Fr, 20.07. 16:50 -
Fr, 20.07. 16:30 -
Fr, 20.07. 16:00 -
Fr, 20.07. 15:30 -
Fr, 20.07. 15:00 -
Fr, 20.07. 14:30 -
Link zu dieser Seite / Seite empfehlen

Das Wetter in ...